createdAt,value
2023-10-23T00:00:29.239Z,2.17
2023-10-23T00:01:42.480Z,2.33
2023-10-23T00:02:44.499Z,2.58
2023-10-23T00:03:46.808Z,2.13
2023-10-23T00:04:49.152Z,2.20
2023-10-23T00:05:51.289Z,1.98
2023-10-23T00:06:53.284Z,1.83
2023-10-23T00:07:55.391Z,2.20
2023-10-23T00:08:57.520Z,2.05
2023-10-23T00:09:59.449Z,1.77
2023-10-23T00:11:01.349Z,1.80
2023-10-23T00:13:17.403Z,2.25
2023-10-23T00:14:19.425Z,2.33
2023-10-23T00:15:21.369Z,2.33
2023-10-23T00:16:24.112Z,2.00
2023-10-23T00:17:26.148Z,2.15
2023-10-23T00:18:28.710Z,1.98
2023-10-23T00:19:30.696Z,2.20
2023-10-23T00:20:32.795Z,2.03
2023-10-23T00:21:34.701Z,2.08
2023-10-23T00:22:36.929Z,1.83
2023-10-23T00:23:39.133Z,2.20
2023-10-23T00:24:41.437Z,2.20
2023-10-23T00:25:43.562Z,1.85
2023-10-23T00:26:45.545Z,2.50
2023-10-23T00:27:47.561Z,1.98
2023-10-23T00:28:50.069Z,2.60
2023-10-23T00:29:53.497Z,2.83
2023-10-23T00:30:56.623Z,1.90
2023-10-23T00:31:58.579Z,2.40
2023-10-23T00:33:00.963Z,2.30
2023-10-23T00:34:02.994Z,2.00
2023-10-23T00:35:06.427Z,1.90
2023-10-23T00:36:08.394Z,2.67
2023-10-23T00:37:10.479Z,2.05
2023-10-23T00:38:12.562Z,2.53
2023-10-23T00:39:15.459Z,2.20
2023-10-23T00:40:17.561Z,2.10
2023-10-23T00:41:20.396Z,2.00
2023-10-23T00:42:22.253Z,2.45
2023-10-23T00:43:26.145Z,1.77
2023-10-23T00:44:29.276Z,2.00
2023-10-23T00:45:31.961Z,1.77
2023-10-23T00:46:34.456Z,1.83
2023-10-23T00:47:36.810Z,3.05
2023-10-23T00:48:39.095Z,2.03
2023-10-23T00:49:42.758Z,2.03
2023-10-23T00:50:44.777Z,2.47
2023-10-23T00:51:47.462Z,1.80
2023-10-23T00:52:49.455Z,2.40
2023-10-23T00:53:52.984Z,2.25
2023-10-23T00:54:55.585Z,2.20
2023-10-23T00:55:59.271Z,2.10
2023-10-23T00:57:01.496Z,2.05
2023-10-23T00:58:03.613Z,2.00
2023-10-23T00:59:05.926Z,2.38
2023-10-23T01:00:09.403Z,1.60
2023-10-23T01:01:15.051Z,2.00
2023-10-23T01:02:17.631Z,2.03
2023-10-23T01:03:19.777Z,2.40
2023-10-23T01:04:22.362Z,2.10
2023-10-23T01:05:24.818Z,2.63
2023-10-23T01:06:27.516Z,1.80
2023-10-23T01:07:29.454Z,2.20
2023-10-23T01:08:31.925Z,2.13
2023-10-23T01:09:33.970Z,2.35
2023-10-23T01:10:36.931Z,2.15
2023-10-23T01:11:38.859Z,2.25
2023-10-23T01:12:42.611Z,1.70
2023-10-23T01:13:44.621Z,2.13
2023-10-23T01:14:46.684Z,1.95
2023-10-23T01:15:48.697Z,1.85
2023-10-23T01:16:51.029Z,2.05
2023-10-23T01:17:53.307Z,1.85
2023-10-23T01:18:55.342Z,1.70
2023-10-23T01:19:57.410Z,2.65
2023-10-23T01:20:59.421Z,2.67
2023-10-23T01:22:01.641Z,2.05
2023-10-23T01:23:04.650Z,2.05
2023-10-23T01:24:09.513Z,2.13
2023-10-23T01:25:14.932Z,1.63
2023-10-23T01:26:16.888Z,2.45
2023-10-23T01:27:19.195Z,1.90
2023-10-23T01:28:21.247Z,2.40
2023-10-23T01:29:23.512Z,1.90
2023-10-23T01:30:25.559Z,2.08
2023-10-23T01:31:27.753Z,1.90
2023-10-23T01:32:29.766Z,1.75
2023-10-23T01:33:32.076Z,1.95
2023-10-23T01:34:34.317Z,2.25
2023-10-23T01:35:36.307Z,2.15
2023-10-23T01:36:39.304Z,1.65
2023-10-23T01:37:45.690Z,2.03
2023-10-23T01:38:47.601Z,2.20
2023-10-23T01:39:49.677Z,1.90
2023-10-23T01:40:51.576Z,2.47
2023-10-23T01:41:53.594Z,2.00
2023-10-23T01:42:55.870Z,1.50
2023-10-23T01:43:57.858Z,1.60
2023-10-23T01:45:00.098Z,1.70
2023-10-23T01:46:02.290Z,1.73
2023-10-23T01:47:04.352Z,1.70
2023-10-23T01:48:06.802Z,2.25
2023-10-23T01:49:08.745Z,1.60
2023-10-23T01:50:11.118Z,1.50
2023-10-23T01:51:13.061Z,2.13
2023-10-23T01:52:15.058Z,1.98
2023-10-23T01:53:16.976Z,1.90
2023-10-23T01:54:19.061Z,1.90
2023-10-23T01:55:21.142Z,1.50
2023-10-23T01:56:23.145Z,1.52
2023-10-23T01:57:25.114Z,2.05
2023-10-23T01:58:27.163Z,1.88
2023-10-23T01:59:29.107Z,1.73
2023-10-23T02:00:31.302Z,2.15
2023-10-23T02:01:35.031Z,1.85
2023-10-23T02:02:37.750Z,1.70
2023-10-23T02:03:39.816Z,1.83
2023-10-23T02:04:42.158Z,1.85
2023-10-23T02:05:44.221Z,2.47
2023-10-23T02:06:46.252Z,1.55
2023-10-23T02:07:48.172Z,1.75
2023-10-23T02:08:50.276Z,1.65
2023-10-23T02:09:52.333Z,1.33
2023-10-23T02:10:54.538Z,1.85
2023-10-23T02:11:56.627Z,1.83
2023-10-23T02:12:58.764Z,1.50
2023-10-23T02:14:00.774Z,1.77
2023-10-23T02:15:05.410Z,1.65
2023-10-23T02:16:08.262Z,1.80
2023-10-23T02:17:10.453Z,1.75
2023-10-23T02:18:12.511Z,1.83
2023-10-23T02:19:14.790Z,1.83
2023-10-23T02:20:16.787Z,1.77
2023-10-23T02:21:18.938Z,1.80
2023-10-23T02:22:21.117Z,1.90
2023-10-23T02:23:23.081Z,1.63
2023-10-23T02:24:25.156Z,2.03
2023-10-23T02:25:27.100Z,2.17
2023-10-23T02:26:33.246Z,2.03
2023-10-23T02:27:35.220Z,2.03
2023-10-23T02:28:37.275Z,1.48
2023-10-23T02:29:42.135Z,1.40
2023-10-23T02:30:44.493Z,1.60
2023-10-23T02:31:46.591Z,1.98
2023-10-23T02:32:48.697Z,1.52
2023-10-23T02:33:51.154Z,1.60
2023-10-23T02:34:53.249Z,1.55
2023-10-23T02:35:55.303Z,2.17
2023-10-23T02:36:57.337Z,2.13
2023-10-23T02:37:59.310Z,1.70
2023-10-23T02:39:01.518Z,1.60
2023-10-23T02:40:05.136Z,1.45
2023-10-23T02:41:07.286Z,1.40
2023-10-23T02:42:09.249Z,1.38
2023-10-23T02:43:11.294Z,1.73
2023-10-23T02:44:13.254Z,2.45
2023-10-23T02:45:16.686Z,1.65
2023-10-23T02:46:18.649Z,1.90
2023-10-23T02:47:20.693Z,1.73
2023-10-23T02:48:22.839Z,1.80
2023-10-23T02:49:25.624Z,1.85
2023-10-23T02:50:27.612Z,1.67
2023-10-23T02:51:29.680Z,1.75
2023-10-23T02:52:31.623Z,1.80
2023-10-23T02:53:33.826Z,2.28
2023-10-23T02:54:36.238Z,1.85
2023-10-23T02:55:41.675Z,1.52
2023-10-23T02:56:43.949Z,1.67
2023-10-23T02:57:46.490Z,1.60
2023-10-23T02:58:48.596Z,2.00
2023-10-23T02:59:50.596Z,1.48
2023-10-23T03:00:52.765Z,2.03
2023-10-23T03:01:55.312Z,2.05
2023-10-23T03:02:57.545Z,2.10
2023-10-23T03:04:00.741Z,2.47
2023-10-23T03:05:03.147Z,1.55
2023-10-23T03:06:06.025Z,2.17
2023-10-23T03:07:08.123Z,1.83
2023-10-23T03:08:10.178Z,1.80
2023-10-23T03:09:13.582Z,1.90
2023-10-23T03:10:15.863Z,2.40
2023-10-23T03:11:17.950Z,1.90
2023-10-23T03:12:20.615Z,2.15
2023-10-23T03:13:22.817Z,1.63
2023-10-23T03:14:25.034Z,1.98
2023-10-23T03:15:27.796Z,2.10
2023-10-23T03:16:30.911Z,1.90
2023-10-23T03:17:32.906Z,1.77
2023-10-23T03:18:35.035Z,2.03
2023-10-23T03:19:37.189Z,2.13
2023-10-23T03:20:39.484Z,2.03
2023-10-23T03:21:41.542Z,1.83
2023-10-23T03:22:43.614Z,1.85
2023-10-23T03:23:45.600Z,1.70
2023-10-23T03:24:47.798Z,1.23
2023-10-23T03:25:49.759Z,1.90
2023-10-23T03:26:51.743Z,1.60
2023-10-23T03:27:53.701Z,1.98
2023-10-23T03:30:07.682Z,1.38
2023-10-23T03:31:09.685Z,1.45
2023-10-23T03:32:11.652Z,1.60
2023-10-23T03:33:13.777Z,1.67
2023-10-23T03:34:17.565Z,1.75
2023-10-23T03:36:21.881Z,1.40
2023-10-23T03:37:23.897Z,1.90
2023-10-23T03:38:25.755Z,1.95
2023-10-23T03:39:27.743Z,1.75
2023-10-23T03:40:29.689Z,1.10
2023-10-23T03:41:31.926Z,2.38
2023-10-23T03:42:34.272Z,1.63
2023-10-23T03:43:36.375Z,2.15
2023-10-23T03:44:38.698Z,1.70
2023-10-23T03:45:42.696Z,1.83
2023-10-23T03:46:45.494Z,1.75
2023-10-23T03:47:47.681Z,1.30
2023-10-23T03:48:49.740Z,1.85
2023-10-23T03:49:52.104Z,1.75
2023-10-23T03:50:54.103Z,1.77
2023-10-23T03:51:56.099Z,1.77
2023-10-23T03:52:58.509Z,2.58
2023-10-23T03:54:00.844Z,1.60
2023-10-23T03:55:02.756Z,1.83
2023-10-23T03:56:06.657Z,1.55
2023-10-23T03:57:08.906Z,1.52
2023-10-23T03:58:11.107Z,2.45
2023-10-23T03:59:13.024Z,1.40
2023-10-23T04:00:15.473Z,1.45
2023-10-23T04:01:17.464Z,1.40
2023-10-23T04:02:19.606Z,1.63
2023-10-23T04:03:21.748Z,1.88
2023-10-23T04:04:24.021Z,1.80
2023-10-23T04:05:26.103Z,2.17
2023-10-23T04:06:28.163Z,1.58
2023-10-23T04:07:30.127Z,1.75
2023-10-23T04:10:02.524Z,2.00
2023-10-23T04:11:06.024Z,1.85
2023-10-23T04:12:08.438Z,1.90
2023-10-23T04:13:10.444Z,1.40
2023-10-23T04:14:12.400Z,2.25
2023-10-23T04:15:14.664Z,2.13
2023-10-23T04:16:17.444Z,1.77
2023-10-23T04:17:19.741Z,2.15
2023-10-23T04:18:22.840Z,2.03
2023-10-23T04:19:24.815Z,1.95
2023-10-23T04:20:26.682Z,2.15
2023-10-23T04:21:28.755Z,1.80
2023-10-23T04:22:30.815Z,2.10
2023-10-23T04:23:33.380Z,2.17
2023-10-23T04:24:35.354Z,2.75
2023-10-23T04:25:37.321Z,1.75
2023-10-23T04:26:39.864Z,1.90
2023-10-23T04:27:42.226Z,2.10
2023-10-23T04:28:44.303Z,1.70
2023-10-23T04:29:46.394Z,1.65
2023-10-23T04:30:48.531Z,1.45
2023-10-23T04:31:50.605Z,1.67
2023-10-23T04:32:52.780Z,1.80
2023-10-23T04:33:54.841Z,1.63
2023-10-23T04:34:57.323Z,1.73
2023-10-23T04:36:00.314Z,1.95
2023-10-23T04:37:02.318Z,1.58
2023-10-23T04:38:04.331Z,1.73
2023-10-23T04:39:06.467Z,1.83
2023-10-23T04:40:09.536Z,1.55
2023-10-23T04:41:11.571Z,1.65
2023-10-23T04:42:13.728Z,1.70
2023-10-23T04:43:15.700Z,1.55
2023-10-23T04:44:20.628Z,1.35
2023-10-23T04:45:23.012Z,1.83
2023-10-23T04:46:25.122Z,1.55
2023-10-23T04:47:27.476Z,1.80
2023-10-23T04:48:29.654Z,1.58
2023-10-23T04:49:31.595Z,1.23
2023-10-23T04:50:34.879Z,1.80
2023-10-23T04:51:36.889Z,1.92
2023-10-23T04:52:40.834Z,1.65
2023-10-23T04:53:42.740Z,1.83
2023-10-23T04:54:45.504Z,1.55
2023-10-23T04:55:47.810Z,1.88
2023-10-23T04:56:49.934Z,1.73
2023-10-23T04:57:51.884Z,1.30
2023-10-23T04:58:54.093Z,1.92
2023-10-23T04:59:56.223Z,2.30
2023-10-23T05:00:58.301Z,1.65
2023-10-23T05:02:00.320Z,1.45
2023-10-23T05:03:02.603Z,1.55
2023-10-23T05:04:05.448Z,1.70
2023-10-23T05:05:08.137Z,1.90
2023-10-23T05:06:10.309Z,2.50
2023-10-23T05:07:12.471Z,1.80
2023-10-23T05:08:14.511Z,1.23
2023-10-23T05:09:17.058Z,1.40
2023-10-23T05:10:19.162Z,1.65
2023-10-23T05:11:21.304Z,1.40
2023-10-23T05:12:23.243Z,1.95
2023-10-23T05:13:26.593Z,1.98
2023-10-23T05:14:28.582Z,1.27
2023-10-23T05:15:32.639Z,1.35
2023-10-23T05:16:34.690Z,1.50
2023-10-23T05:17:37.022Z,1.40
2023-10-23T05:18:38.932Z,1.20
2023-10-23T05:19:41.275Z,1.48
2023-10-23T05:20:43.120Z,1.13
2023-10-23T05:21:45.123Z,1.23
2023-10-23T05:22:47.036Z,1.20
2023-10-23T05:23:49.115Z,1.45
2023-10-23T05:24:51.349Z,1.60
2023-10-23T05:25:53.512Z,1.98
2023-10-23T05:26:55.422Z,1.30
2023-10-23T05:27:57.646Z,1.65
2023-10-23T05:28:59.843Z,1.83
2023-10-23T05:30:01.919Z,1.40
2023-10-23T05:31:03.988Z,1.45
2023-10-23T05:32:06.401Z,1.98
2023-10-23T05:33:08.361Z,1.77
2023-10-23T05:34:10.663Z,1.65
2023-10-23T05:35:15.844Z,1.70
2023-10-23T05:36:18.303Z,1.70
2023-10-23T05:37:21.088Z,1.88
2023-10-23T05:38:23.164Z,1.80
2023-10-23T05:39:25.325Z,1.73
2023-10-23T05:40:27.291Z,1.13
2023-10-23T05:41:29.283Z,1.60
2023-10-23T05:42:32.411Z,1.17
2023-10-23T05:43:34.411Z,1.90
2023-10-23T05:44:36.581Z,1.80
2023-10-23T05:45:38.812Z,1.23
2023-10-23T05:46:40.893Z,1.45
2023-10-23T05:47:42.852Z,1.63
2023-10-23T05:48:44.965Z,1.58
2023-10-23T05:49:46.959Z,1.27
2023-10-23T05:51:02.205Z,1.42
2023-10-23T05:52:05.011Z,1.45
2023-10-23T05:53:07.195Z,1.17
2023-10-23T05:54:10.785Z,1.58
2023-10-23T05:55:12.936Z,1.48
2023-10-23T05:56:15.096Z,2.60
2023-10-23T05:57:17.518Z,1.63
2023-10-23T05:58:19.413Z,1.67
2023-10-23T05:59:21.431Z,2.15
2023-10-23T06:00:23.602Z,1.70
2023-10-23T06:01:25.694Z,1.88
2023-10-23T06:02:28.774Z,2.00
2023-10-23T06:03:30.980Z,1.65
2023-10-23T06:04:33.020Z,5.03
2023-10-23T06:05:43.671Z,3.30
2023-10-23T06:07:47.674Z,2.30
2023-10-23T06:08:49.841Z,2.65
2023-10-23T06:10:23.742Z,1.70
2023-10-23T06:11:25.775Z,1.58
2023-10-23T06:12:27.778Z,1.52
2023-10-23T06:13:30.032Z,1.48
2023-10-23T06:14:32.052Z,1.92
2023-10-23T06:15:34.354Z,1.23
2023-10-23T06:16:36.263Z,1.48
2023-10-23T06:17:38.331Z,1.08
2023-10-23T06:18:40.358Z,1.05
2023-10-23T06:19:42.376Z,1.90
2023-10-23T06:20:44.452Z,0.98
2023-10-23T06:21:46.503Z,1.52
2023-10-23T06:22:48.597Z,1.60
2023-10-23T06:23:50.651Z,1.63
2023-10-23T06:24:52.656Z,1.40
2023-10-23T06:25:58.159Z,1.35
2023-10-23T06:27:00.107Z,1.75
2023-10-23T06:28:03.335Z,1.30
2023-10-23T06:29:05.313Z,1.85
2023-10-23T06:30:07.802Z,1.60
2023-10-23T06:31:12.107Z,1.42
2023-10-23T06:32:14.647Z,1.27
2023-10-23T06:33:16.541Z,1.50
2023-10-23T06:34:18.558Z,2.65
2023-10-23T06:35:20.460Z,3.08
2023-10-23T06:36:22.560Z,2.30
2023-10-23T06:37:24.415Z,1.52
2023-10-23T06:38:26.812Z,1.30
2023-10-23T06:39:28.747Z,1.63
2023-10-23T06:40:30.793Z,1.77
2023-10-23T06:41:33.658Z,1.42
2023-10-23T06:42:36.324Z,2.50
2023-10-23T06:43:38.781Z,1.88
2023-10-23T06:44:41.002Z,1.50
2023-10-23T06:46:01.075Z,1.60
2023-10-23T06:47:04.786Z,1.90
2023-10-23T06:48:06.873Z,1.70
2023-10-23T06:49:08.994Z,1.60
2023-10-23T06:50:14.873Z,2.20
2023-10-23T06:51:17.023Z,1.65
2023-10-23T06:52:19.284Z,1.95
2023-10-23T06:53:21.281Z,2.67
2023-10-23T06:54:25.239Z,1.95
2023-10-23T06:55:29.001Z,1.75
2023-10-23T06:56:31.164Z,1.70
2023-10-23T06:57:33.467Z,1.60
2023-10-23T06:58:35.399Z,1.55
2023-10-23T06:59:38.149Z,1.42
2023-10-23T07:00:40.131Z,1.67
2023-10-23T07:01:45.225Z,2.05
2023-10-23T07:02:51.471Z,2.05
2023-10-23T07:03:53.767Z,1.90
2023-10-23T07:04:55.921Z,1.98
2023-10-23T07:05:58.008Z,2.17
2023-10-23T07:07:01.149Z,1.95
2023-10-23T07:08:03.387Z,1.65
2023-10-23T07:09:05.920Z,1.55
2023-10-23T07:10:08.745Z,1.48
2023-10-23T07:11:15.093Z,1.50
2023-10-23T07:12:17.762Z,1.27
2023-10-23T07:13:23.113Z,1.17
2023-10-23T07:14:25.621Z,1.50
2023-10-23T07:15:27.699Z,1.42
2023-10-23T07:16:29.965Z,1.58
2023-10-23T07:17:32.050Z,1.38
2023-10-23T07:18:34.622Z,1.77
2023-10-23T07:19:36.609Z,1.60
2023-10-23T07:20:38.743Z,1.55
2023-10-23T07:21:40.658Z,1.30
2023-10-23T07:22:42.645Z,1.80
2023-10-23T07:23:44.804Z,1.67
2023-10-23T07:24:46.809Z,1.80
2023-10-23T07:25:49.561Z,1.85
2023-10-23T07:26:51.589Z,1.77
2023-10-23T07:27:53.578Z,1.48
2023-10-23T07:28:55.746Z,1.67
2023-10-23T07:29:57.900Z,1.45
2023-10-23T07:31:03.072Z,1.65
2023-10-23T07:32:05.739Z,1.95
2023-10-23T07:33:07.740Z,2.05
2023-10-23T07:34:10.709Z,1.85
2023-10-23T07:35:12.862Z,1.20
2023-10-23T07:36:16.273Z,1.63
2023-10-23T07:37:21.238Z,1.50
2023-10-23T07:38:23.156Z,1.42
2023-10-23T07:39:25.125Z,2.00
2023-10-23T07:40:27.070Z,1.75
2023-10-23T07:41:29.234Z,1.33
2023-10-23T07:42:31.108Z,1.92
2023-10-23T07:43:33.178Z,1.85
2023-10-23T07:44:35.044Z,1.25
2023-10-23T07:45:40.943Z,1.70
2023-10-23T07:46:45.452Z,1.92
2023-10-23T07:47:49.934Z,1.73
2023-10-23T07:48:51.996Z,1.77
2023-10-23T07:49:53.988Z,1.90
2023-10-23T07:50:59.245Z,2.05
2023-10-23T07:52:01.493Z,1.85
2023-10-23T07:53:03.645Z,2.58
2023-10-23T07:54:06.067Z,2.30
2023-10-23T07:55:09.766Z,2.50
2023-10-23T07:56:14.477Z,2.38
2023-10-23T07:57:16.610Z,2.22
2023-10-23T07:58:18.930Z,1.95
2023-10-23T07:59:23.138Z,1.70
2023-10-23T08:01:27.099Z,1.77
2023-10-23T08:02:29.484Z,2.38
2023-10-23T08:03:32.109Z,1.85
2023-10-23T08:04:34.547Z,2.95
2023-10-23T08:05:37.098Z,1.90
2023-10-23T08:06:39.164Z,1.80
2023-10-23T08:07:41.201Z,1.75
2023-10-23T08:08:47.560Z,1.73
2023-10-23T08:09:49.495Z,1.88
2023-10-23T08:10:51.868Z,1.48
2023-10-23T08:11:54.913Z,1.83
2023-10-23T08:12:57.147Z,1.83
2023-10-23T08:14:00.710Z,1.77
2023-10-23T08:15:03.763Z,2.17
2023-10-23T08:16:06.169Z,1.75
2023-10-23T08:17:08.422Z,1.67
2023-10-23T08:18:16.191Z,1.67
2023-10-23T08:19:29.147Z,2.00
2023-10-23T08:20:32.179Z,1.77
2023-10-23T08:21:34.402Z,1.80
2023-10-23T08:22:37.079Z,1.45
2023-10-23T08:23:39.998Z,1.70
2023-10-23T08:24:42.361Z,1.80
2023-10-23T08:25:45.812Z,1.55
2023-10-23T08:26:47.728Z,1.38
2023-10-23T08:27:49.726Z,1.90
2023-10-23T08:30:22.549Z,1.98
2023-10-23T08:31:38.507Z,1.75
2023-10-23T08:32:52.540Z,2.60
2023-10-23T08:33:55.473Z,2.72
2023-10-23T08:34:57.544Z,1.88
2023-10-23T08:35:59.789Z,1.85
2023-10-23T08:38:25.239Z,1.90
2023-10-23T08:39:27.576Z,2.22
2023-10-23T08:40:30.423Z,2.35
2023-10-23T08:41:33.491Z,2.80
2023-10-23T08:42:36.064Z,2.10
2023-10-23T08:43:38.639Z,2.80
2023-10-23T08:44:41.606Z,2.25
2023-10-23T08:45:44.890Z,2.70
2023-10-23T08:46:47.049Z,3.13
2023-10-23T08:47:49.162Z,2.03
2023-10-23T08:48:51.121Z,2.65
2023-10-23T08:49:54.875Z,4.10
2023-10-23T08:50:59.947Z,2.72
2023-10-23T08:52:04.265Z,2.53
2023-10-23T08:53:09.464Z,3.05
2023-10-23T08:54:21.089Z,2.67
2023-10-23T08:55:25.188Z,2.60
2023-10-23T08:58:37.153Z,2.47
2023-10-23T08:59:43.271Z,2.72
2023-10-23T09:00:45.455Z,2.45
2023-10-23T09:01:47.844Z,2.85
2023-10-23T09:02:53.361Z,2.65
2023-10-23T09:04:03.252Z,2.67
2023-10-23T09:05:07.606Z,3.15
2023-10-23T09:06:10.617Z,2.33
2023-10-23T09:07:12.564Z,1.83
2023-10-23T09:08:14.936Z,1.90
2023-10-23T09:09:18.091Z,2.17
2023-10-23T09:10:20.305Z,2.08
2023-10-23T09:11:29.369Z,1.50
2023-10-23T09:12:33.296Z,1.92
2023-10-23T09:13:38.551Z,2.67
2023-10-23T09:14:44.218Z,1.98
2023-10-23T09:15:51.433Z,2.10
2023-10-23T09:16:56.181Z,1.50
2023-10-23T09:17:59.328Z,1.77
2023-10-23T09:19:01.409Z,1.40
2023-10-23T09:20:20.405Z,2.20
2023-10-23T09:21:23.651Z,1.73
2023-10-23T09:22:30.321Z,1.98
2023-10-23T09:23:32.850Z,1.90
2023-10-23T09:24:34.821Z,1.85
2023-10-23T09:25:36.837Z,1.60
2023-10-23T09:26:38.714Z,1.88
2023-10-23T09:27:41.127Z,1.98
2023-10-23T09:28:43.018Z,2.28
2023-10-23T09:29:45.639Z,1.67
2023-10-23T09:30:47.720Z,1.67
2023-10-23T09:31:50.910Z,1.48
2023-10-23T09:32:54.869Z,1.40
2023-10-23T09:33:58.128Z,2.13
2023-10-23T09:35:01.043Z,1.67
2023-10-23T09:36:04.387Z,1.75
2023-10-23T09:37:06.948Z,1.80
2023-10-23T09:38:13.483Z,1.80
2023-10-23T09:39:15.511Z,1.70
2023-10-23T09:40:20.722Z,1.40
2023-10-23T09:41:22.675Z,1.83
2023-10-23T09:42:33.337Z,1.70
2023-10-23T09:43:37.205Z,1.63
2023-10-23T09:44:41.957Z,1.70
2023-10-23T09:45:44.875Z,2.03
2023-10-23T09:46:49.545Z,1.70
2023-10-23T09:47:55.866Z,1.63
2023-10-23T09:49:04.939Z,2.08
2023-10-23T09:50:07.301Z,1.58
2023-10-23T09:51:14.409Z,1.77
2023-10-23T09:52:17.178Z,1.70
2023-10-23T09:53:20.812Z,2.05
2023-10-23T09:54:23.892Z,1.60
2023-10-23T09:55:29.559Z,1.73
2023-10-23T09:56:35.535Z,1.77
2023-10-23T09:57:45.905Z,1.80
2023-10-23T09:58:59.050Z,1.95
2023-10-23T10:00:02.436Z,2.33
2023-10-23T10:01:09.269Z,2.33
2023-10-23T10:02:11.642Z,1.55
2023-10-23T10:03:18.220Z,2.17
2023-10-23T10:04:30.506Z,2.08
2023-10-23T10:05:59.555Z,2.40
2023-10-23T10:07:12.667Z,2.20
2023-10-23T10:08:21.128Z,2.33
2023-10-23T10:09:26.376Z,2.33
2023-10-23T10:10:30.524Z,2.38
2023-10-23T10:11:33.444Z,2.20
2023-10-23T10:12:39.224Z,1.98
2023-10-23T10:13:41.814Z,2.38
2023-10-23T10:14:44.780Z,2.35
2023-10-23T10:15:48.631Z,2.30
2023-10-23T10:16:51.603Z,2.03
2023-10-23T10:17:53.817Z,2.22
2023-10-23T10:18:56.202Z,2.45
2023-10-23T10:20:01.458Z,2.00
2023-10-23T10:21:09.487Z,1.70
2023-10-23T10:22:27.418Z,1.90
2023-10-23T10:23:30.324Z,2.03
2023-10-23T10:24:35.470Z,2.40
2023-10-23T10:25:39.057Z,2.50
2023-10-23T10:26:41.545Z,2.08
2023-10-23T10:27:43.592Z,2.15
2023-10-23T10:28:56.125Z,2.08
2023-10-23T10:30:05.752Z,1.98
2023-10-23T10:31:08.467Z,2.25
2023-10-23T10:32:13.421Z,2.15
2023-10-23T10:34:19.650Z,2.10
2023-10-23T10:34:55.625Z,2.28
2023-10-23T10:36:06.837Z,2.33
2023-10-23T10:37:25.343Z,2.00
2023-10-23T10:38:31.324Z,2.00
2023-10-23T10:39:52.123Z,1.90
2023-10-23T10:41:02.750Z,1.98
2023-10-23T10:42:10.469Z,2.42
2023-10-23T10:43:20.526Z,2.33
2023-10-23T10:44:23.985Z,2.20
2023-10-23T10:45:28.911Z,2.40
2023-10-23T10:46:31.381Z,2.15
2023-10-23T10:47:45.802Z,2.15
2023-10-23T10:48:50.749Z,2.42
2023-10-23T10:49:53.253Z,3.22
2023-10-23T10:50:55.763Z,2.10
2023-10-23T10:51:58.117Z,2.13
2023-10-23T10:53:05.122Z,2.30
2023-10-23T10:54:11.512Z,2.40
2023-10-23T10:55:14.255Z,2.05
2023-10-23T10:56:16.514Z,2.42
2023-10-23T10:57:20.232Z,2.47
2023-10-23T10:58:23.101Z,2.83
2023-10-23T10:59:28.555Z,2.28
2023-10-23T11:00:37.050Z,2.40
2023-10-23T11:01:39.323Z,3.17
2023-10-23T11:02:41.734Z,2.53
2023-10-23T11:03:44.076Z,2.67
2023-10-23T11:04:46.311Z,2.60
2023-10-23T11:05:48.554Z,2.22
2023-10-23T11:06:50.726Z,2.67
2023-10-23T11:07:53.126Z,2.63
2023-10-23T11:08:56.334Z,2.47
2023-10-23T11:09:58.551Z,3.30
2023-10-23T11:11:07.455Z,2.25
2023-10-23T11:12:09.457Z,2.28
2023-10-23T11:13:15.911Z,2.00
2023-10-23T11:14:17.937Z,2.30
2023-10-23T11:15:20.082Z,2.67
2023-10-23T11:16:22.903Z,2.05
2023-10-23T11:17:25.265Z,2.20
2023-10-23T11:18:29.540Z,2.53
2023-10-23T11:19:31.489Z,1.98
2023-10-23T11:20:33.590Z,2.55
2023-10-23T11:21:35.619Z,2.60
2023-10-23T11:22:42.590Z,2.13
2023-10-23T11:23:46.459Z,2.60
2023-10-23T11:24:48.782Z,2.42
2023-10-23T11:25:52.244Z,2.72
2023-10-23T11:26:55.631Z,2.67
2023-10-23T11:28:00.342Z,2.50
2023-10-23T11:29:02.348Z,2.15
2023-10-23T11:30:06.396Z,2.80
2023-10-23T11:31:08.517Z,2.85
2023-10-23T11:32:14.622Z,2.35
2023-10-23T11:33:19.707Z,2.78
2023-10-23T11:34:21.833Z,2.13
2023-10-23T11:35:31.971Z,2.22
2023-10-23T11:36:34.423Z,2.97
2023-10-23T11:37:40.802Z,3.08
2023-10-23T11:38:45.659Z,2.50
2023-10-23T11:39:49.428Z,2.45
2023-10-23T11:40:52.175Z,2.63
2023-10-23T11:41:55.566Z,2.60
2023-10-23T11:42:58.422Z,2.40
2023-10-23T11:44:04.755Z,2.97
2023-10-23T11:45:09.102Z,2.88
2023-10-23T11:46:11.240Z,2.78
2023-10-23T11:47:14.039Z,2.75
2023-10-23T11:48:16.416Z,2.40
2023-10-23T11:49:22.312Z,2.70
2023-10-23T11:50:27.247Z,2.47
2023-10-23T11:51:29.312Z,2.10
2023-10-23T11:52:31.579Z,2.30
2023-10-23T11:53:34.657Z,2.30
2023-10-23T11:54:36.764Z,2.53
2023-10-23T11:55:39.477Z,2.60
2023-10-23T11:56:44.032Z,2.65
2023-10-23T11:57:53.226Z,3.20
2023-10-23T11:58:56.476Z,3.03
2023-10-23T11:59:58.605Z,2.97
2023-10-23T12:01:00.596Z,3.22
2023-10-23T12:02:03.175Z,2.63
2023-10-23T12:03:07.851Z,2.90
2023-10-23T12:04:10.740Z,2.45
2023-10-23T12:05:23.456Z,2.08
2023-10-23T12:06:26.016Z,3.22
2023-10-23T12:07:28.004Z,2.80
2023-10-23T12:08:30.297Z,2.67
2023-10-23T12:09:32.215Z,2.85
2023-10-23T12:10:39.338Z,3.15
2023-10-23T12:11:41.913Z,2.97
2023-10-23T12:12:45.403Z,3.30
2023-10-23T12:13:47.749Z,3.08
2023-10-23T12:14:49.796Z,2.53
2023-10-23T12:15:51.810Z,2.65
2023-10-23T12:16:53.825Z,3.72
2023-10-23T12:17:55.989Z,2.60
2023-10-23T12:18:58.950Z,2.95
2023-10-23T12:20:01.624Z,2.90
2023-10-23T12:22:10.205Z,2.20
2023-10-23T12:23:12.257Z,3.17
2023-10-23T12:24:14.298Z,2.38
2023-10-23T12:25:17.536Z,2.83
2023-10-23T12:26:22.788Z,2.22
2023-10-23T12:27:24.878Z,2.67
2023-10-23T12:28:27.521Z,3.13
2023-10-23T12:29:29.896Z,2.67
2023-10-23T12:30:31.957Z,2.60
2023-10-23T12:32:01.850Z,2.80
2023-10-23T12:33:14.286Z,2.15
2023-10-23T12:34:18.565Z,2.75
2023-10-23T12:35:20.851Z,2.92
2023-10-23T12:36:22.934Z,2.97
2023-10-23T12:37:27.197Z,2.92
2023-10-23T12:38:29.773Z,2.95
2023-10-23T12:39:31.832Z,3.38
2023-10-23T12:40:36.807Z,2.80
2023-10-23T12:44:46.325Z,3.05
2023-10-23T12:47:19.889Z,3.35
2023-10-23T12:48:29.092Z,3.22
2023-10-23T12:49:38.562Z,3.63
2023-10-23T12:50:40.878Z,2.83
2023-10-23T12:54:35.992Z,3.15
2023-10-23T12:57:08.500Z,3.33
2023-10-23T12:58:10.764Z,3.60
2023-10-23T12:59:12.725Z,3.60
2023-10-23T13:00:15.356Z,3.20
2023-10-23T13:01:17.373Z,3.25
2023-10-23T13:02:19.603Z,3.88
2023-10-23T13:03:21.526Z,3.80
2023-10-23T13:04:23.647Z,3.80
2023-10-23T13:05:25.678Z,3.15
2023-10-23T13:06:28.058Z,3.33
2023-10-23T13:07:29.985Z,3.17
2023-10-23T13:08:32.100Z,4.30
2023-10-23T13:09:34.116Z,3.22
2023-10-23T13:10:36.344Z,3.45
2023-10-23T13:11:38.314Z,3.63
2023-10-23T13:12:40.325Z,3.67
2023-10-23T13:13:42.205Z,3.50
2023-10-23T13:14:44.337Z,3.60
2023-10-23T13:15:46.289Z,3.47
2023-10-23T13:16:48.458Z,4.00
2023-10-23T13:17:52.591Z,3.88
2023-10-23T13:19:56.613Z,3.50
2023-10-23T13:21:32.871Z,4.03
2023-10-23T13:22:20.815Z,3.60
2023-10-23T13:23:23.163Z,3.78
2023-10-23T13:24:25.221Z,3.90
2023-10-23T13:25:27.355Z,3.53
2023-10-23T13:26:29.571Z,3.95
2023-10-23T13:27:31.587Z,3.72
2023-10-23T13:28:34.326Z,4.55
2023-10-23T13:29:36.390Z,3.97
2023-10-23T13:30:39.162Z,4.43
2023-10-23T13:31:41.483Z,4.53
2023-10-23T13:32:43.658Z,4.30
2023-10-23T13:33:45.759Z,3.88
2023-10-23T13:34:47.757Z,4.78
2023-10-23T13:35:50.257Z,4.20
2023-10-23T13:36:52.376Z,3.65
2023-10-23T13:37:54.431Z,4.47
2023-10-23T13:38:56.625Z,4.07
2023-10-23T13:39:58.690Z,3.40
2023-10-23T13:41:01.945Z,4.32
2023-10-23T13:42:05.113Z,4.18
2023-10-23T13:43:07.032Z,4.35
2023-10-23T13:44:09.524Z,4.60
2023-10-23T13:45:12.379Z,4.50
2023-10-23T13:46:16.628Z,4.13
2023-10-23T13:47:18.917Z,4.38
2023-10-23T13:48:21.036Z,4.43
2023-10-23T13:49:23.245Z,4.63
2023-10-23T13:50:25.359Z,4.43
2023-10-23T13:51:27.293Z,4.63
2023-10-23T13:52:29.444Z,4.60
2023-10-23T13:53:32.261Z,4.47
2023-10-23T13:54:34.887Z,4.78
2023-10-23T13:55:36.938Z,5.07
2023-10-23T13:56:38.989Z,4.20
2023-10-23T13:57:40.937Z,5.55
2023-10-23T13:58:44.351Z,4.35
2023-10-23T13:59:46.496Z,4.90
2023-10-23T14:00:49.593Z,5.25
2023-10-23T14:01:51.627Z,6.13
2023-10-23T14:02:53.742Z,5.90
2023-10-23T14:03:56.003Z,6.18
2023-10-23T14:04:58.362Z,5.28
2023-10-23T14:06:00.361Z,4.97
2023-10-23T14:07:02.786Z,6.75
2023-10-23T14:08:05.964Z,6.00
2023-10-23T14:10:31.602Z,5.57
2023-10-23T14:12:00.005Z,4.88
2023-10-23T14:12:55.841Z,4.88
2023-10-23T14:13:59.184Z,5.10
2023-10-23T14:15:01.077Z,5.40
2023-10-23T14:16:04.108Z,4.95
2023-10-23T14:17:06.333Z,5.53
2023-10-23T14:18:08.584Z,5.72
2023-10-23T14:19:14.063Z,4.75
2023-10-23T14:20:17.792Z,5.78
2023-10-23T14:21:20.280Z,6.70
2023-10-23T14:22:22.434Z,5.85
2023-10-23T14:23:24.850Z,5.47
2023-10-23T14:24:27.649Z,5.70
2023-10-23T14:25:29.631Z,5.85
2023-10-23T14:26:31.887Z,5.63
2023-10-23T14:27:33.746Z,5.53